createdAt,value
2022-08-11T00:01:21.413Z,22.28
2022-08-11T00:03:51.183Z,21.76
2022-08-11T00:06:27.312Z,22.17
2022-08-11T00:09:01.277Z,22.13
2022-08-11T00:11:49.373Z,21.20
2022-08-11T00:14:23.222Z,21.43
2022-08-11T00:17:08.515Z,22.05
2022-08-11T00:20:13.769Z,21.68
2022-08-11T00:22:29.922Z,22.02
2022-08-11T00:25:02.550Z,21.48
2022-08-11T00:27:36.613Z,21.69
2022-08-11T00:30:05.692Z,21.93
2022-08-11T00:32:32.559Z,21.92
2022-08-11T00:35:53.752Z,21.65
2022-08-11T00:37:49.999Z,21.88
2022-08-11T00:40:18.962Z,21.88
2022-08-11T00:43:04.943Z,21.17
2022-08-11T00:46:05.164Z,21.87
2022-08-11T00:48:47.740Z,21.52
2022-08-11T00:52:03.944Z,21.83
2022-08-11T00:54:41.125Z,21.81
2022-08-11T00:57:36.942Z,21.80
2022-08-11T01:00:25.597Z,21.77
2022-08-11T01:03:09.921Z,21.77
2022-08-11T01:06:08.076Z,21.68
2022-08-11T01:09:22.353Z,21.72
2022-08-11T01:12:14.443Z,21.72
2022-08-11T01:15:00.273Z,21.67
2022-08-11T01:17:26.883Z,21.66
2022-08-11T01:20:45.417Z,21.65
2022-08-11T01:23:20.329Z,21.65
2022-08-11T01:26:15.047Z,21.57
2022-08-11T01:28:54.094Z,21.55
2022-08-11T01:31:49.978Z,21.49
2022-08-11T01:34:41.746Z,21.49
2022-08-11T01:37:36.338Z,21.50
2022-08-11T01:40:11.869Z,21.50
2022-08-11T01:43:23.813Z,21.49
2022-08-11T01:46:25.410Z,21.49
2022-08-11T01:50:08.324Z,21.28
2022-08-11T01:52:19.948Z,21.43
2022-08-11T01:55:14.997Z,21.43
2022-08-11T01:57:53.638Z,20.88
2022-08-11T02:00:25.026Z,20.01
2022-08-11T02:03:17.071Z,21.38
2022-08-11T02:05:43.773Z,21.20
2022-08-11T02:08:33.602Z,21.43
2022-08-11T02:11:31.574Z,21.43
2022-08-11T02:14:17.381Z,21.44
2022-08-11T02:16:55.960Z,21.44
2022-08-11T02:20:14.507Z,21.47
2022-08-11T02:24:04.178Z,21.47
2022-08-11T02:26:26.881Z,20.55
2022-08-11T02:29:15.288Z,21.46
2022-08-11T02:32:28.792Z,21.46
2022-08-11T02:35:42.922Z,21.46
2022-08-11T02:38:25.052Z,21.46
2022-08-11T02:41:35.446Z,21.45
2022-08-11T02:44:16.920Z,21.36
2022-08-11T02:47:02.099Z,21.42
2022-08-11T02:50:02.652Z,21.42
2022-08-11T02:52:47.768Z,21.38
2022-08-11T02:55:56.425Z,21.36
2022-08-11T02:58:39.261Z,21.29
2022-08-11T03:01:24.170Z,21.09
2022-08-11T03:04:01.256Z,20.34
2022-08-11T03:06:41.417Z,21.16
2022-08-11T03:09:19.647Z,21.15
2022-08-11T03:12:16.622Z,21.14
2022-08-11T03:15:01.924Z,21.11
2022-08-11T03:18:03.994Z,20.75
2022-08-11T03:20:44.924Z,21.09
2022-08-11T03:23:19.677Z,20.63
2022-08-11T03:26:07.793Z,21.02
2022-08-11T03:28:42.085Z,20.34
2022-08-11T03:31:27.654Z,20.93
2022-08-11T03:34:14.191Z,20.94
2022-08-11T03:37:53.427Z,20.96
2022-08-11T03:40:43.051Z,20.94
2022-08-11T03:43:45.766Z,20.96
2022-08-11T03:46:27.683Z,20.94
2022-08-11T03:49:10.278Z,20.40
2022-08-11T03:51:52.316Z,20.59
2022-08-11T03:54:28.422Z,20.88
2022-08-11T03:57:22.473Z,20.89
2022-08-11T04:00:11.255Z,20.91
2022-08-11T04:03:15.743Z,20.94
2022-08-11T04:06:11.775Z,20.96
2022-08-11T04:09:16.962Z,20.95
2022-08-11T04:12:14.778Z,20.94
2022-08-11T04:15:15.781Z,20.87
2022-08-11T04:18:00.922Z,20.84
2022-08-11T04:20:30.634Z,20.87
2022-08-11T04:24:36.133Z,20.88
2022-08-11T04:26:34.483Z,20.85
2022-08-11T04:30:01.017Z,20.62
2022-08-11T04:32:48.959Z,20.89
2022-08-11T04:35:35.190Z,20.59
2022-08-11T04:38:10.915Z,20.92
2022-08-11T04:41:01.085Z,20.95
2022-08-11T04:44:05.797Z,20.97
2022-08-11T04:46:32.573Z,21.01
2022-08-11T04:49:43.981Z,21.05
2022-08-11T04:52:53.837Z,21.10
2022-08-11T04:55:57.835Z,20.88
2022-08-11T04:59:08.242Z,21.11
2022-08-11T05:01:44.182Z,21.03
2022-08-11T05:04:53.922Z,21.09
2022-08-11T05:07:41.631Z,21.05
2022-08-11T05:10:20.369Z,21.07
2022-08-11T05:13:18.453Z,21.13
2022-08-11T05:16:14.926Z,21.17
2022-08-11T05:19:10.958Z,21.22
2022-08-11T05:22:01.376Z,21.29
2022-08-11T05:24:56.358Z,20.98
2022-08-11T05:27:55.707Z,20.99
2022-08-11T05:30:46.851Z,20.65
2022-08-11T05:33:42.769Z,21.53
2022-08-11T05:36:23.976Z,21.62
2022-08-11T05:39:16.463Z,21.31
2022-08-11T05:42:01.938Z,21.21
2022-08-11T05:44:47.716Z,21.82
2022-08-11T05:47:44.252Z,21.89
2022-08-11T05:50:33.110Z,21.98
2022-08-11T05:53:18.691Z,22.06
2022-08-11T05:56:04.458Z,21.91
2022-08-11T05:58:41.306Z,22.19
2022-08-11T06:01:10.805Z,22.30
2022-08-11T06:03:58.519Z,22.16
2022-08-11T06:06:29.337Z,21.95
2022-08-11T06:08:57.723Z,22.09
2022-08-11T06:11:42.851Z,21.97
2022-08-11T06:14:12.832Z,22.82
2022-08-11T06:16:43.744Z,22.84
2022-08-11T06:19:10.619Z,22.31
2022-08-11T06:21:38.433Z,22.62
2022-08-11T06:24:12.787Z,22.87
2022-08-11T06:27:08.993Z,22.87
2022-08-11T06:29:47.962Z,22.97
2022-08-11T06:32:28.172Z,23.00
2022-08-11T06:35:13.822Z,23.02
2022-08-11T06:37:42.353Z,23.08
2022-08-11T06:40:17.779Z,23.12
2022-08-11T06:42:58.793Z,23.18
2022-08-11T06:45:48.322Z,23.13
2022-08-11T06:48:22.044Z,23.37
2022-08-11T06:51:17.353Z,23.33
2022-08-11T06:53:56.339Z,23.42
2022-08-11T06:57:28.478Z,23.24
2022-08-11T07:00:09.962Z,23.37
2022-08-11T07:02:42.839Z,23.55
2022-08-11T07:05:48.474Z,23.57
2022-08-11T07:08:44.837Z,23.04
2022-08-11T07:12:06.006Z,23.60
2022-08-11T07:15:01.104Z,23.06
2022-08-11T07:17:32.094Z,23.62
2022-08-11T07:20:18.923Z,23.98
2022-08-11T07:23:09.866Z,24.08
2022-08-11T07:26:00.775Z,23.85
2022-08-11T07:28:47.903Z,23.85
2022-08-11T07:31:21.480Z,24.22
2022-08-11T07:34:07.618Z,24.27
2022-08-11T07:36:45.057Z,24.28
2022-08-11T07:39:27.551Z,23.88
2022-08-11T07:41:57.268Z,24.39
2022-08-11T07:44:34.993Z,24.41
2022-08-11T07:47:21.292Z,23.73
2022-08-11T07:50:11.124Z,24.42
2022-08-11T07:52:40.656Z,24.47
2022-08-11T07:55:17.703Z,24.09
2022-08-11T07:58:16.785Z,24.40
2022-08-11T08:01:21.553Z,24.65
2022-08-11T08:04:12.747Z,24.79
2022-08-11T08:07:00.491Z,24.58
2022-08-11T08:09:46.250Z,25.10
2022-08-11T08:12:31.949Z,24.61
2022-08-11T08:15:17.742Z,25.09
2022-08-11T08:18:09.997Z,25.32
2022-08-11T08:20:50.106Z,25.39
2022-08-11T08:23:33.343Z,25.46
2022-08-11T08:26:04.465Z,24.92
2022-08-11T08:28:32.951Z,25.44
2022-08-11T08:31:02.484Z,25.50
2022-08-11T08:33:31.118Z,24.93
2022-08-11T08:36:13.062Z,25.67
2022-08-11T08:38:51.078Z,25.72
2022-08-11T08:41:23.403Z,25.48
2022-08-11T08:43:52.144Z,25.99
2022-08-11T08:46:22.297Z,26.09
2022-08-11T08:48:50.436Z,26.03
2022-08-11T08:52:01.516Z,25.53
2022-08-11T08:54:37.739Z,25.49
2022-08-11T08:57:08.283Z,26.26
2022-08-11T08:59:48.447Z,25.90
2022-08-11T09:02:17.766Z,26.31
2022-08-11T09:04:46.022Z,26.30
2022-08-11T09:07:15.507Z,26.11
2022-08-11T09:09:48.559Z,25.91
2022-08-11T09:12:36.539Z,26.41
2022-08-11T09:15:11.796Z,26.09
2022-08-11T09:17:41.116Z,26.59
2022-08-11T09:20:34.217Z,26.93
2022-08-11T09:24:07.992Z,27.09
2022-08-11T09:26:31.017Z,26.93
2022-08-11T09:28:58.552Z,27.49
2022-08-11T09:31:26.799Z,27.12
2022-08-11T09:33:57.317Z,27.43
2022-08-11T09:36:43.026Z,27.94
2022-08-11T09:39:34.626Z,26.91
2022-08-11T09:42:07.074Z,27.47
2022-08-11T09:44:50.627Z,27.58
2022-08-11T09:47:29.501Z,27.75
2022-08-11T09:50:00.596Z,27.66
2022-08-11T09:52:33.688Z,27.20
2022-08-11T09:55:01.380Z,27.66
2022-08-11T09:57:49.219Z,26.97
2022-08-11T10:00:18.837Z,27.44
2022-08-11T10:02:47.612Z,27.64
2022-08-11T10:05:33.968Z,27.73
2022-08-11T10:08:04.044Z,27.86
2022-08-11T10:10:36.563Z,28.04
2022-08-11T10:14:04.825Z,28.02
2022-08-11T10:16:16.005Z,28.11
2022-08-11T10:18:53.823Z,28.46
2022-08-11T10:21:28.416Z,28.51
2022-08-11T10:24:18.207Z,28.62
2022-08-11T10:26:55.834Z,28.68
2022-08-11T10:29:52.106Z,28.88
2022-08-11T10:32:57.931Z,29.03
2022-08-11T10:35:30.288Z,28.89
2022-08-11T10:38:07.277Z,28.90
2022-08-11T10:40:39.085Z,28.61
2022-08-11T10:43:08.226Z,29.33
2022-08-11T10:46:00.080Z,29.65
2022-08-11T10:48:29.023Z,28.69
2022-08-11T10:51:14.893Z,29.67
2022-08-11T10:54:12.382Z,29.88
2022-08-11T10:56:58.747Z,30.17
2022-08-11T10:59:28.045Z,29.55
2022-08-11T11:01:59.064Z,29.23
2022-08-11T11:05:01.929Z,29.77
2022-08-11T11:07:44.443Z,29.48
2022-08-11T11:10:11.492Z,29.93
2022-08-11T11:13:06.455Z,30.70
2022-08-11T11:15:54.845Z,31.20
2022-08-11T11:18:28.831Z,31.60
2022-08-11T11:21:01.582Z,31.65
2022-08-11T11:23:47.330Z,31.30
2022-08-11T11:26:41.306Z,31.08
2022-08-11T11:29:33.270Z,31.56
2022-08-11T11:32:20.569Z,31.55
2022-08-11T11:35:07.105Z,31.46
2022-08-11T11:37:37.106Z,31.14
2022-08-11T11:40:15.464Z,31.04
2022-08-11T11:42:44.933Z,31.09
2022-08-11T11:45:22.726Z,30.99
2022-08-11T11:47:54.022Z,31.02
2022-08-11T11:50:34.752Z,30.33
2022-08-11T11:53:07.354Z,30.19
2022-08-11T11:55:37.176Z,30.65
2022-08-11T11:58:23.626Z,30.48
2022-08-11T12:01:10.487Z,30.95
2022-08-11T12:03:44.864Z,31.57
2022-08-11T12:06:14.429Z,32.11
2022-08-11T12:08:42.169Z,32.73
2022-08-11T12:11:31.341Z,33.14
2022-08-11T12:14:04.696Z,34.57
2022-08-11T12:16:40.591Z,34.76
2022-08-11T12:19:12.397Z,34.27
2022-08-11T12:22:00.935Z,33.68
2022-08-11T12:24:49.987Z,33.33
2022-08-11T12:27:24.174Z,31.99
2022-08-11T12:30:01.171Z,33.17
2022-08-11T12:32:32.783Z,33.25
2022-08-11T12:35:05.592Z,33.16
2022-08-11T12:37:38.433Z,33.09
2022-08-11T12:40:49.926Z,33.49
2022-08-11T12:43:38.049Z,32.39
2022-08-11T12:46:31.892Z,32.45
2022-08-11T12:49:18.533Z,32.03
2022-08-11T12:52:14.452Z,31.19
2022-08-11T12:55:12.557Z,31.98
2022-08-11T12:58:03.785Z,32.19
2022-08-11T13:00:51.172Z,32.27
2022-08-11T13:03:40.070Z,32.48
2022-08-11T13:06:07.769Z,33.83
2022-08-11T13:08:38.578Z,33.33
2022-08-11T13:11:56.801Z,32.85
2022-08-11T13:14:15.510Z,31.98
2022-08-11T13:17:03.626Z,32.31
2022-08-11T13:19:31.546Z,31.94
2022-08-11T13:22:02.387Z,30.51
2022-08-11T13:24:29.573Z,30.85
2022-08-11T13:27:02.219Z,31.51
2022-08-11T13:29:31.670Z,30.51
2022-08-11T13:32:00.049Z,30.20
2022-08-11T13:34:33.011Z,30.94
2022-08-11T13:37:05.537Z,31.15
2022-08-11T13:39:34.201Z,30.67
2022-08-11T13:42:02.479Z,30.55
2022-08-11T13:44:31.396Z,31.46
2022-08-11T13:47:01.639Z,31.78
2022-08-11T13:49:29.437Z,31.40
2022-08-11T13:51:56.840Z,33.49
2022-08-11T13:54:43.060Z,32.99
2022-08-11T13:57:13.803Z,32.18
2022-08-11T14:00:15.835Z,32.66
2022-08-11T14:02:54.342Z,32.38
2022-08-11T14:05:27.982Z,32.08
2022-08-11T14:08:03.987Z,32.48
2022-08-11T14:10:34.465Z,32.38
2022-08-11T14:13:21.768Z,33.52
2022-08-11T14:15:49.968Z,34.62
2022-08-11T14:18:16.695Z,36.25
2022-08-11T14:21:02.547Z,35.76
2022-08-11T14:23:38.960Z,36.08
2022-08-11T14:26:27.027Z,35.45
2022-08-11T14:28:57.001Z,35.18
2022-08-11T14:31:25.616Z,34.07
2022-08-11T14:34:01.113Z,34.46
2022-08-11T14:36:37.352Z,34.51
2022-08-11T14:39:17.087Z,33.59
2022-08-11T14:42:11.155Z,34.30
2022-08-11T14:45:03.726Z,34.22
2022-08-11T14:47:35.771Z,34.16
2022-08-11T14:50:11.587Z,35.53
2022-08-11T14:52:44.564Z,35.75
2022-08-11T14:55:31.302Z,36.44
2022-08-11T14:57:58.630Z,35.68
2022-08-11T15:00:26.509Z,34.77
2022-08-11T15:03:14.571Z,34.96
2022-08-11T15:05:55.773Z,34.55
2022-08-11T15:08:52.135Z,33.72
2022-08-11T15:11:39.480Z,34.13
2022-08-11T15:14:10.463Z,32.77
2022-08-11T15:16:59.447Z,33.51
2022-08-11T15:19:40.520Z,32.48
2022-08-11T15:22:28.989Z,32.35
2022-08-11T15:24:59.861Z,33.05
2022-08-11T15:27:48.693Z,31.92
2022-08-11T15:30:37.285Z,32.81
2022-08-11T15:33:27.323Z,33.24
2022-08-11T15:36:16.182Z,31.97
2022-08-11T15:39:19.493Z,32.96
2022-08-11T15:42:19.493Z,32.75
2022-08-11T15:45:10.355Z,31.82
2022-08-11T15:47:58.419Z,32.02
2022-08-11T15:50:33.676Z,31.80
2022-08-11T15:53:04.221Z,30.95
2022-08-11T15:55:33.237Z,31.39
2022-08-11T15:58:22.173Z,30.93
2022-08-11T16:01:11.359Z,29.89
2022-08-11T16:04:13.288Z,30.52
2022-08-11T16:06:49.453Z,29.78
2022-08-11T16:09:52.042Z,30.20
2022-08-11T16:12:23.653Z,28.88
2022-08-11T16:15:15.215Z,28.91
2022-08-11T16:17:57.011Z,28.04
2022-08-11T16:20:26.619Z,28.53
2022-08-11T16:23:02.463Z,28.25
2022-08-11T16:27:03.405Z,28.57
2022-08-11T16:28:20.804Z,28.87
2022-08-11T16:30:48.487Z,28.14
2022-08-11T16:33:48.703Z,28.12
2022-08-11T16:36:24.891Z,28.72
2022-08-11T16:38:53.200Z,27.16
2022-08-11T16:41:42.246Z,28.62
2022-08-11T16:44:37.094Z,27.99
2022-08-11T16:47:10.935Z,28.18
2022-08-11T16:49:53.300Z,28.10
2022-08-11T16:52:23.380Z,27.52
2022-08-11T16:54:52.623Z,27.96
2022-08-11T16:57:43.874Z,28.13
2022-08-11T17:00:16.464Z,27.99
2022-08-11T17:03:15.562Z,26.95
2022-08-11T17:06:05.482Z,25.73
2022-08-11T17:08:58.488Z,27.41
2022-08-11T17:11:53.108Z,27.48
2022-08-11T17:14:36.229Z,27.26
2022-08-11T17:17:08.935Z,26.68
2022-08-11T17:20:41.298Z,25.99
2022-08-11T17:22:54.752Z,25.21
2022-08-11T17:25:24.937Z,25.95
2022-08-11T17:27:52.655Z,25.58
2022-08-11T17:30:20.322Z,25.36
2022-08-11T17:33:08.281Z,25.42
2022-08-11T17:35:44.768Z,25.76
2022-08-11T17:38:16.627Z,25.01
2022-08-11T17:41:08.441Z,24.64
2022-08-11T17:43:54.642Z,25.50
2022-08-11T17:46:40.433Z,25.46
2022-08-11T17:49:09.012Z,25.53
2022-08-11T17:51:54.846Z,25.42
2022-08-11T17:54:45.671Z,24.27
2022-08-11T17:57:36.115Z,25.32
2022-08-11T18:00:09.635Z,23.92
2022-08-11T18:03:00.099Z,24.24
2022-08-11T18:05:35.093Z,24.11
2022-08-11T18:08:25.992Z,23.98
2022-08-11T18:11:13.233Z,24.13
2022-08-11T18:14:10.308Z,24.12
2022-08-11T18:16:55.638Z,17.55
2022-08-11T18:19:40.992Z,24.48
2022-08-11T18:22:40.786Z,23.31
2022-08-11T18:25:31.628Z,22.41
2022-08-11T18:28:18.492Z,24.05
2022-08-11T18:31:09.645Z,24.03
2022-08-11T18:34:10.918Z,24.11
2022-08-11T18:37:27.236Z,24.51
2022-08-11T18:40:25.163Z,23.94
2022-08-11T18:43:15.913Z,23.56
2022-08-11T18:46:08.317Z,23.60
2022-08-11T18:48:58.197Z,23.68
2022-08-11T18:51:43.890Z,24.07
2022-08-11T18:54:30.359Z,23.33
2022-08-11T18:57:20.368Z,23.02
2022-08-11T19:00:06.208Z,23.69
2022-08-11T19:02:56.111Z,23.24
2022-08-11T19:06:05.234Z,24.14
2022-08-11T19:09:00.706Z,23.50
2022-08-11T19:11:47.816Z,23.31
2022-08-11T19:14:36.218Z,22.77
2022-08-11T19:17:43.498Z,23.98
2022-08-11T19:20:36.658Z,23.94
2022-08-11T19:23:27.500Z,23.91
2022-08-11T19:26:13.288Z,23.90
2022-08-11T19:29:01.628Z,22.39
2022-08-11T19:31:52.447Z,23.83
2022-08-11T19:34:40.342Z,23.81
2022-08-11T19:37:29.162Z,23.73
2022-08-11T19:40:20.801Z,23.66
2022-08-11T19:43:16.846Z,23.17
2022-08-11T19:46:15.272Z,23.03
2022-08-11T19:49:00.538Z,23.58
2022-08-11T19:51:47.538Z,23.55
2022-08-11T19:54:42.290Z,23.18
2022-08-11T19:57:32.529Z,23.49
2022-08-11T20:00:30.032Z,22.53
2022-08-11T20:03:19.523Z,22.64
2022-08-11T20:06:06.512Z,23.22
2022-08-11T20:08:58.515Z,23.09
2022-08-11T20:11:48.754Z,22.31
2022-08-11T20:14:36.045Z,22.49
2022-08-11T20:17:22.540Z,22.62
2022-08-11T20:20:09.796Z,23.07
2022-08-11T20:22:55.560Z,22.75
2022-08-11T20:25:42.492Z,21.82
2022-08-11T20:28:28.493Z,22.89
2022-08-11T20:31:17.229Z,22.85
2022-08-11T20:34:03.078Z,22.50
2022-08-11T20:36:52.539Z,22.09
2022-08-11T20:39:43.628Z,22.72
2022-08-11T20:42:33.095Z,22.65
2022-08-11T20:45:23.970Z,22.61
2022-08-11T20:48:15.002Z,22.57
2022-08-11T20:51:07.557Z,22.53
2022-08-11T20:53:58.456Z,22.49
2022-08-11T20:56:46.562Z,22.47
2022-08-11T20:59:38.438Z,22.43
2022-08-11T21:02:35.544Z,21.93
2022-08-11T21:06:10.226Z,21.98
2022-08-11T21:08:31.035Z,21.97
2022-08-11T21:11:27.740Z,21.96
2022-08-11T21:14:14.219Z,22.23
2022-08-11T21:17:00.576Z,22.19
2022-08-11T21:19:59.984Z,21.80
2022-08-11T21:23:05.504Z,22.08
2022-08-11T21:26:04.253Z,22.06
2022-08-11T21:28:50.500Z,21.98
2022-08-11T21:31:39.200Z,21.80
2022-08-11T21:34:25.108Z,21.96
2022-08-11T21:37:11.466Z,21.54
2022-08-11T21:39:58.472Z,21.94
2022-08-11T21:42:47.037Z,21.69
2022-08-11T21:45:32.760Z,21.90
2022-08-11T21:48:19.043Z,21.81
2022-08-11T21:51:04.471Z,21.85
2022-08-11T21:53:50.744Z,21.45
2022-08-11T21:56:36.431Z,21.47
2022-08-11T21:59:21.727Z,21.83
2022-08-11T22:02:12.863Z,21.82
2022-08-11T22:04:59.343Z,21.79
2022-08-11T22:07:45.215Z,21.77
2022-08-11T22:10:40.552Z,21.35
2022-08-11T22:13:27.532Z,21.68
2022-08-11T22:16:13.291Z,21.57
2022-08-11T22:18:58.905Z,21.21
2022-08-11T22:22:02.570Z,21.56
2022-08-11T22:24:51.325Z,21.50
2022-08-11T22:27:37.132Z,21.10
2022-08-11T22:30:26.142Z,21.48
2022-08-11T22:33:12.018Z,21.49
2022-08-11T22:36:00.343Z,21.50
2022-08-11T22:38:50.013Z,21.53
2022-08-11T22:41:35.365Z,21.55
2022-08-11T22:44:21.587Z,21.01
2022-08-11T22:47:08.213Z,21.57
2022-08-11T22:49:58.522Z,21.30
2022-08-11T22:52:47.117Z,21.34
2022-08-11T22:55:33.861Z,21.54
2022-08-11T22:58:23.199Z,21.55
2022-08-11T23:01:17.450Z,21.30
2022-08-11T23:04:05.399Z,21.53
2022-08-11T23:06:53.291Z,21.51
2022-08-11T23:09:39.011Z,21.49
2022-08-11T23:12:24.765Z,20.97
2022-08-11T23:15:10.714Z,21.52
2022-08-11T23:18:01.991Z,21.29
2022-08-11T23:20:56.626Z,21.09
2022-08-11T23:23:44.500Z,20.91
2022-08-11T23:26:30.039Z,21.57
2022-08-11T23:29:16.402Z,21.26
2022-08-11T23:32:04.882Z,21.41
2022-08-11T23:35:03.790Z,21.51
2022-08-11T23:37:50.474Z,21.64
2022-08-11T23:40:39.715Z,21.67
2022-08-11T23:43:26.043Z,21.56
2022-08-11T23:46:11.313Z,21.64
2022-08-11T23:49:00.352Z,21.64
2022-08-11T23:51:46.928Z,21.63
2022-08-11T23:54:37.303Z,21.23
2022-08-11T23:57:24.013Z,20.97
